sensor_id;sensor_type;location;lat;lon;timestamp;temperature;humidity
23540;DHT22;11947;50.810;4.394;2022-12-16T00:00:29;-1.40;99.90
23540;DHT22;11947;50.810;4.394;2022-12-16T00:02:55;-1.40;99.90
23540;DHT22;11947;50.810;4.394;2022-12-16T00:05:22;-1.50;99.90
23540;DHT22;11947;50.810;4.394;2022-12-16T00:07:48;-1.50;99.90
23540;DHT22;11947;50.810;4.394;2022-12-16T00:10:14;-1.50;99.90
23540;DHT22;11947;50.810;4.394;2022-12-16T00:12:39;-1.40;99.90
23540;DHT22;11947;50.810;4.394;2022-12-16T00:15:08;-1.30;99.90
23540;DHT22;11947;50.810;4.394;2022-12-16T00:17:34;-1.40;99.90
23540;DHT22;11947;50.810;4.394;2022-12-16T00:20:01;-1.40;99.90
23540;DHT22;11947;50.810;4.394;2022-12-16T00:22:32;-1.30;99.90
23540;DHT22;11947;50.810;4.394;2022-12-16T00:24:58;-1.40;99.90
23540;DHT22;11947;50.810;4.394;2022-12-16T00:27:23;-1.30;99.90
23540;DHT22;11947;50.810;4.394;2022-12-16T00:29:49;-1.20;99.90
23540;DHT22;11947;50.810;4.394;2022-12-16T00:32:14;-1.10;99.90
23540;DHT22;11947;50.810;4.394;2022-12-16T00:34:40;-1.00;99.90
23540;DHT22;11947;50.810;4.394;2022-12-16T00:37:06;-1.00;99.90
23540;DHT22;11947;50.810;4.394;2022-12-16T00:39:31;-1.00;99.90
23540;DHT22;11947;50.810;4.394;2022-12-16T00:41:57;-0.80;99.90
23540;DHT22;11947;50.810;4.394;2022-12-16T00:44:23;-0.90;99.90
23540;DHT22;11947;50.810;4.394;2022-12-16T00:46:48;-0.80;99.90
23540;DHT22;11947;50.810;4.394;2022-12-16T00:49:14;-0.70;99.90
23540;DHT22;11947;50.810;4.394;2022-12-16T00:51:40;-0.70;99.90
23540;DHT22;11947;50.810;4.394;2022-12-16T00:54:05;-0.60;99.90
23540;DHT22;11947;50.810;4.394;2022-12-16T00:56:31;-0.40;99.90
23540;DHT22;11947;50.810;4.394;2022-12-16T00:58:56;-0.50;99.90
23540;DHT22;11947;50.810;4.394;2022-12-16T01:01:22;-0.30;99.90
23540;DHT22;11947;50.810;4.394;2022-12-16T01:03:48;-0.30;99.90
23540;DHT22;11947;50.810;4.394;2022-12-16T01:06:15;-0.30;99.90
23540;DHT22;11947;50.810;4.394;2022-12-16T01:08:42;-0.30;99.90
23540;DHT22;11947;50.810;4.394;2022-12-16T01:11:14;-0.10;99.90
23540;DHT22;11947;50.810;4.394;2022-12-16T01:13:40;-0.20;99.90
23540;DHT22;11947;50.810;4.394;2022-12-16T01:16:06;-0.20;99.90
23540;DHT22;11947;50.810;4.394;2022-12-16T01:18:32;-0.20;99.90
23540;DHT22;11947;50.810;4.394;2022-12-16T01:21:05;-0.10;99.90
23540;DHT22;11947;50.810;4.394;2022-12-16T01:23:32;0.00;99.90
23540;DHT22;11947;50.810;4.394;2022-12-16T01:25:59;0.00;99.90
23540;DHT22;11947;50.810;4.394;2022-12-16T01:28:26;0.00;99.90
23540;DHT22;11947;50.810;4.394;2022-12-16T01:30:59;0.10;99.90
23540;DHT22;11947;50.810;4.394;2022-12-16T01:33:30;0.10;99.90
23540;DHT22;11947;50.810;4.394;2022-12-16T01:36:00;0.10;99.90
23540;DHT22;11947;50.810;4.394;2022-12-16T01:38:26;0.00;99.90
23540;DHT22;11947;50.810;4.394;2022-12-16T01:40:52;0.00;99.90
23540;DHT22;11947;50.810;4.394;2022-12-16T01:43:22;0.10;99.90
23540;DHT22;11947;50.810;4.394;2022-12-16T01:45:48;0.10;99.90
23540;DHT22;11947;50.810;4.394;2022-12-16T01:48:41;0.10;99.90
23540;DHT22;11947;50.810;4.394;2022-12-16T01:51:17;0.00;99.90
23540;DHT22;11947;50.810;4.394;2022-12-16T01:53:46;0.00;99.90
23540;DHT22;11947;50.810;4.394;2022-12-16T01:56:14;0.10;99.90
23540;DHT22;11947;50.810;4.394;2022-12-16T01:58:42;0.10;99.90
23540;DHT22;11947;50.810;4.394;2022-12-16T02:01:09;0.10;99.90
23540;DHT22;11947;50.810;4.394;2022-12-16T02:03:35;0.00;99.90
23540;DHT22;11947;50.810;4.394;2022-12-16T02:06:03;0.00;99.90
23540;DHT22;11947;50.810;4.394;2022-12-16T02:08:30;0.20;99.90
23540;DHT22;11947;50.810;4.394;2022-12-16T02:11:18;0.20;99.90
23540;DHT22;11947;50.810;4.394;2022-12-16T02:16:46;0.10;99.90
23540;DHT22;11947;50.810;4.394;2022-12-16T02:19:42;0.10;99.90
23540;DHT22;11947;50.810;4.394;2022-12-16T02:23:04;0.30;99.90
23540;DHT22;11947;50.810;4.394;2022-12-16T02:31:05;0.50;99.90
23540;DHT22;11947;50.810;4.394;2022-12-16T02:38:45;0.70;99.90
23540;DHT22;11947;50.810;4.394;2022-12-16T02:41:20;0.80;99.90
23540;DHT22;11947;50.810;4.394;2022-12-16T02:44:08;0.80;99.90
23540;DHT22;11947;50.810;4.394;2022-12-16T02:46:43;0.90;99.90
23540;DHT22;11947;50.810;4.394;2022-12-16T02:51:41;1.00;99.90
23540;DHT22;11947;50.810;4.394;2022-12-16T02:54:08;1.00;99.90
23540;DHT22;11947;50.810;4.394;2022-12-16T02:56:57;1.10;99.90
23540;DHT22;11947;50.810;4.394;2022-12-16T02:59:47;1.10;99.90
23540;DHT22;11947;50.810;4.394;2022-12-16T03:02:23;1.20;99.90
23540;DHT22;11947;50.810;4.394;2022-12-16T03:04:57;1.30;99.90
23540;DHT22;11947;50.810;4.394;2022-12-16T03:07:26;1.30;99.90
23540;DHT22;11947;50.810;4.394;2022-12-16T03:09:53;1.20;99.90
23540;DHT22;11947;50.810;4.394;2022-12-16T03:12:22;1.20;99.90
23540;DHT22;11947;50.810;4.394;2022-12-16T03:14:51;1.30;99.90
23540;DHT22;11947;50.810;4.394;2022-12-16T03:17:19;1.30;99.90
23540;DHT22;11947;50.810;4.394;2022-12-16T03:20:08;1.30;99.90
23540;DHT22;11947;50.810;4.394;2022-12-16T03:22:36;1.40;99.90
23540;DHT22;11947;50.810;4.394;2022-12-16T03:25:05;1.40;99.90
23540;DHT22;11947;50.810;4.394;2022-12-16T03:30:16;1.30;99.90
23540;DHT22;11947;50.810;4.394;2022-12-16T03:37:54;1.40;99.90
23540;DHT22;11947;50.810;4.394;2022-12-16T03:40:22;1.30;99.90
23540;DHT22;11947;50.810;4.394;2022-12-16T03:42:50;1.40;99.90
23540;DHT22;11947;50.810;4.394;2022-12-16T03:45:22;1.50;99.90
23540;DHT22;11947;50.810;4.394;2022-12-16T03:47:50;1.50;99.90
23540;DHT22;11947;50.810;4.394;2022-12-16T03:50:21;1.50;99.90
23540;DHT22;11947;50.810;4.394;2022-12-16T03:52:48;1.60;99.90
23540;DHT22;11947;50.810;4.394;2022-12-16T03:55:14;1.60;99.90
23540;DHT22;11947;50.810;4.394;2022-12-16T03:57:39;1.60;99.90
23540;DHT22;11947;50.810;4.394;2022-12-16T04:00:05;1.60;99.90
23540;DHT22;11947;50.810;4.394;2022-12-16T04:02:31;1.60;99.90
23540;DHT22;11947;50.810;4.394;2022-12-16T04:04:57;1.60;99.90
23540;DHT22;11947;50.810;4.394;2022-12-16T04:07:22;1.50;99.90
23540;DHT22;11947;50.810;4.394;2022-12-16T04:09:49;1.60;99.90
23540;DHT22;11947;50.810;4.394;2022-12-16T04:12:15;1.70;99.90
23540;DHT22;11947;50.810;4.394;2022-12-16T04:14:59;1.80;99.90
23540;DHT22;11947;50.810;4.394;2022-12-16T04:17:43;1.90;99.90
23540;DHT22;11947;50.810;4.394;2022-12-16T04:20:36;1.90;99.90
23540;DHT22;11947;50.810;4.394;2022-12-16T04:23:23;1.80;99.90
23540;DHT22;11947;50.810;4.394;2022-12-16T04:26:07;1.90;99.90
23540;DHT22;11947;50.810;4.394;2022-12-16T04:28:33;1.80;99.90
23540;DHT22;11947;50.810;4.394;2022-12-16T04:30:59;1.80;99.90
23540;DHT22;11947;50.810;4.394;2022-12-16T04:33:24;1.80;99.90
23540;DHT22;11947;50.810;4.394;2022-12-16T04:36:08;1.80;99.90
23540;DHT22;11947;50.810;4.394;2022-12-16T04:38:53;1.70;99.90
23540;DHT22;11947;50.810;4.394;2022-12-16T04:41:37;1.90;99.90
23540;DHT22;11947;50.810;4.394;2022-12-16T04:44:21;1.90;99.90
23540;DHT22;11947;50.810;4.394;2022-12-16T04:47:05;1.90;99.90
23540;DHT22;11947;50.810;4.394;2022-12-16T04:49:52;1.80;99.90
23540;DHT22;11947;50.810;4.394;2022-12-16T04:52:36;1.70;99.90
23540;DHT22;11947;50.810;4.394;2022-12-16T04:55:20;1.70;99.90
23540;DHT22;11947;50.810;4.394;2022-12-16T04:58:04;1.80;99.90
23540;DHT22;11947;50.810;4.394;2022-12-16T05:00:49;1.90;99.90
23540;DHT22;11947;50.810;4.394;2022-12-16T05:03:33;1.80;99.90
23540;DHT22;11947;50.810;4.394;2022-12-16T05:06:18;1.90;99.90
23540;DHT22;11947;50.810;4.394;2022-12-16T05:09:03;1.90;99.90
23540;DHT22;11947;50.810;4.394;2022-12-16T05:11:48;1.80;99.90
23540;DHT22;11947;50.810;4.394;2022-12-16T05:14:32;1.90;99.90
23540;DHT22;11947;50.810;4.394;2022-12-16T05:17:17;2.00;99.90
23540;DHT22;11947;50.810;4.394;2022-12-16T05:20:01;2.00;99.90
23540;DHT22;11947;50.810;4.394;2022-12-16T05:22:47;1.90;99.90
23540;DHT22;11947;50.810;4.394;2022-12-16T05:25:31;1.90;99.90
23540;DHT22;11947;50.810;4.394;2022-12-16T05:28:16;1.90;99.90
23540;DHT22;11947;50.810;4.394;2022-12-16T05:31:00;2.00;99.90
23540;DHT22;11947;50.810;4.394;2022-12-16T05:33:44;2.00;99.90
23540;DHT22;11947;50.810;4.394;2022-12-16T05:36:29;2.10;99.90
23540;DHT22;11947;50.810;4.394;2022-12-16T05:39:13;2.10;99.90
23540;DHT22;11947;50.810;4.394;2022-12-16T05:41:57;2.10;99.90
23540;DHT22;11947;50.810;4.394;2022-12-16T05:44:41;2.10;99.90
23540;DHT22;11947;50.810;4.394;2022-12-16T05:47:25;2.20;99.90
23540;DHT22;11947;50.810;4.394;2022-12-16T05:50:09;2.20;99.90
23540;DHT22;11947;50.810;4.394;2022-12-16T05:52:55;2.20;99.90
23540;DHT22;11947;50.810;4.394;2022-12-16T05:55:40;2.20;99.90
23540;DHT22;11947;50.810;4.394;2022-12-16T05:58:24;2.30;99.90
23540;DHT22;11947;50.810;4.394;2022-12-16T06:01:09;2.20;99.90
23540;DHT22;11947;50.810;4.394;2022-12-16T06:03:53;2.20;99.90
23540;DHT22;11947;50.810;4.394;2022-12-16T06:06:37;2.20;99.90
23540;DHT22;11947;50.810;4.394;2022-12-16T06:09:22;2.10;99.90
23540;DHT22;11947;50.810;4.394;2022-12-16T06:12:06;2.20;99.90
23540;DHT22;11947;50.810;4.394;2022-12-16T06:14:50;2.20;99.90
23540;DHT22;11947;50.810;4.394;2022-12-16T06:17:34;2.20;99.90
23540;DHT22;11947;50.810;4.394;2022-12-16T06:20:18;2.20;99.90
23540;DHT22;11947;50.810;4.394;2022-12-16T06:23:03;2.20;99.90
23540;DHT22;11947;50.810;4.394;2022-12-16T06:25:48;2.10;99.90
23540;DHT22;11947;50.810;4.394;2022-12-16T06:28:32;2.20;99.90
23540;DHT22;11947;50.810;4.394;2022-12-16T06:31:16;2.30;99.90
23540;DHT22;11947;50.810;4.394;2022-12-16T06:34:00;2.10;99.90
23540;DHT22;11947;50.810;4.394;2022-12-16T06:36:44;2.10;99.90
23540;DHT22;11947;50.810;4.394;2022-12-16T06:39:28;2.00;99.90
23540;DHT22;11947;50.810;4.394;2022-12-16T06:42:12;2.00;99.90
23540;DHT22;11947;50.810;4.394;2022-12-16T06:44:56;2.00;99.90
23540;DHT22;11947;50.810;4.394;2022-12-16T06:47:43;1.90;99.90
23540;DHT22;11947;50.810;4.394;2022-12-16T06:50:28;1.90;99.90
23540;DHT22;11947;50.810;4.394;2022-12-16T06:53:13;1.90;99.90
23540;DHT22;11947;50.810;4.394;2022-12-16T06:55:57;1.90;99.90
23540;DHT22;11947;50.810;4.394;2022-12-16T06:58:42;1.80;99.90
23540;DHT22;11947;50.810;4.394;2022-12-16T07:01:26;1.80;99.90
23540;DHT22;11947;50.810;4.394;2022-12-16T07:04:11;1.90;99.90
23540;DHT22;11947;50.810;4.394;2022-12-16T07:06:54;1.80;99.90
23540;DHT22;11947;50.810;4.394;2022-12-16T07:09:39;1.90;99.90
23540;DHT22;11947;50.810;4.394;2022-12-16T07:12:23;2.00;99.90
23540;DHT22;11947;50.810;4.394;2022-12-16T07:15:07;2.10;99.90
23540;DHT22;11947;50.810;4.394;2022-12-16T07:17:51;2.10;99.90
23540;DHT22;11947;50.810;4.394;2022-12-16T07:20:37;2.00;99.90
23540;DHT22;11947;50.810;4.394;2022-12-16T07:23:22;2.00;99.90
23540;DHT22;11947;50.810;4.394;2022-12-16T07:26:06;2.00;99.90
23540;DHT22;11947;50.810;4.394;2022-12-16T07:28:49;2.00;99.90
23540;DHT22;11947;50.810;4.394;2022-12-16T07:31:34;2.00;99.90
23540;DHT22;11947;50.810;4.394;2022-12-16T07:34:18;2.00;99.90
23540;DHT22;11947;50.810;4.394;2022-12-16T07:37:02;1.90;99.90
23540;DHT22;11947;50.810;4.394;2022-12-16T07:39:46;1.90;99.90
23540;DHT22;11947;50.810;4.394;2022-12-16T07:42:30;2.00;99.90
23540;DHT22;11947;50.810;4.394;2022-12-16T07:45:17;2.00;99.90
23540;DHT22;11947;50.810;4.394;2022-12-16T07:48:01;2.00;99.90
23540;DHT22;11947;50.810;4.394;2022-12-16T07:50:45;1.90;99.90
23540;DHT22;11947;50.810;4.394;2022-12-16T07:53:33;1.90;99.90
23540;DHT22;11947;50.810;4.394;2022-12-16T07:56:17;1.80;99.90
23540;DHT22;11947;50.810;4.394;2022-12-16T07:59:01;1.90;99.90
23540;DHT22;11947;50.810;4.394;2022-12-16T08:01:45;1.80;99.90
23540;DHT22;11947;50.810;4.394;2022-12-16T08:04:29;1.90;99.90
23540;DHT22;11947;50.810;4.394;2022-12-16T08:07:13;1.80;99.90
23540;DHT22;11947;50.810;4.394;2022-12-16T08:09:57;1.80;99.90
23540;DHT22;11947;50.810;4.394;2022-12-16T08:12:43;1.90;99.90
23540;DHT22;11947;50.810;4.394;2022-12-16T08:15:28;1.90;99.90
23540;DHT22;11947;50.810;4.394;2022-12-16T08:18:14;2.00;99.90
23540;DHT22;11947;50.810;4.394;2022-12-16T08:20:59;2.10;99.90
23540;DHT22;11947;50.810;4.394;2022-12-16T08:23:43;2.20;99.90
23540;DHT22;11947;50.810;4.394;2022-12-16T08:26:27;2.30;99.90
23540;DHT22;11947;50.810;4.394;2022-12-16T08:29:11;2.40;99.90
23540;DHT22;11947;50.810;4.394;2022-12-16T08:31:55;2.40;99.90
23540;DHT22;11947;50.810;4.394;2022-12-16T08:34:43;2.40;99.90
23540;DHT22;11947;50.810;4.394;2022-12-16T08:37:33;2.70;99.90
23540;DHT22;11947;50.810;4.394;2022-12-16T08:40:17;2.70;99.90
23540;DHT22;11947;50.810;4.394;2022-12-16T08:43:02;2.60;99.90
23540;DHT22;11947;50.810;4.394;2022-12-16T08:45:47;2.50;99.90
23540;DHT22;11947;50.810;4.394;2022-12-16T08:48:31;2.40;99.90
23540;DHT22;11947;50.810;4.394;2022-12-16T08:51:15;2.30;99.90
23540;DHT22;11947;50.810;4.394;2022-12-16T08:53:59;2.20;99.90
23540;DHT22;11947;50.810;4.394;2022-12-16T08:56:43;2.20;99.90
23540;DHT22;11947;50.810;4.394;2022-12-16T08:59:27;2.20;99.90
23540;DHT22;11947;50.810;4.394;2022-12-16T09:02:11;2.10;99.90
23540;DHT22;11947;50.810;4.394;2022-12-16T09:04:55;2.10;99.90
23540;DHT22;11947;50.810;4.394;2022-12-16T09:07:39;2.30;99.90
23540;DHT22;11947;50.810;4.394;2022-12-16T09:13:43;2.40;99.90
23540;DHT22;11947;50.810;4.394;2022-12-16T09:16:27;2.30;99.90
23540;DHT22;11947;50.810;4.394;2022-12-16T09:19:11;2.20;99.90
23540;DHT22;11947;50.810;4.394;2022-12-16T09:21:58;2.40;99.90
23540;DHT22;11947;50.810;4.394;2022-12-16T09:24:52;2.40;99.90
23540;DHT22;11947;50.810;4.394;2022-12-16T09:27:35;2.40;99.90
23540;DHT22;11947;50.810;4.394;2022-12-16T09:30:20;2.60;99.90
23540;DHT22;11947;50.810;4.394;2022-12-16T09:33:04;2.70;99.90
23540;DHT22;11947;50.810;4.394;2022-12-16T09:35:48;2.90;99.90
23540;DHT22;11947;50.810;4.394;2022-12-16T09:38:32;3.10;99.90
23540;DHT22;11947;50.810;4.394;2022-12-16T09:48:03;3.00;99.90
23540;DHT22;11947;50.810;4.394;2022-12-16T09:50:53;2.90;99.90
23540;DHT22;11947;50.810;4.394;2022-12-16T09:53:40;2.80;99.90
23540;DHT22;11947;50.810;4.394;2022-12-16T09:56:33;2.80;99.90
23540;DHT22;11947;50.810;4.394;2022-12-16T09:59:29;3.00;99.90
23540;DHT22;11947;50.810;4.394;2022-12-16T10:02:16;3.00;99.90
23540;DHT22;11947;50.810;4.394;2022-12-16T10:05:02;3.10;99.90
23540;DHT22;11947;50.810;4.394;2022-12-16T10:07:52;3.20;99.90
23540;DHT22;11947;50.810;4.394;2022-12-16T10:16:46;3.20;99.90
23540;DHT22;11947;50.810;4.394;2022-12-16T10:20:03;3.00;99.90
23540;DHT22;11947;50.810;4.394;2022-12-16T10:23:16;2.90;99.90
23540;DHT22;11947;50.810;4.394;2022-12-16T10:26:17;2.90;99.90
23540;DHT22;11947;50.810;4.394;2022-12-16T10:29:17;2.80;99.90
23540;DHT22;11947;50.810;4.394;2022-12-16T10:32:43;3.00;99.90
23540;DHT22;11947;50.810;4.394;2022-12-16T10:35:50;3.20;99.90
23540;DHT22;11947;50.810;4.394;2022-12-16T10:38:35;3.30;99.90
23540;DHT22;11947;50.810;4.394;2022-12-16T10:41:27;3.30;99.90
23540;DHT22;11947;50.810;4.394;2022-12-16T10:44:25;3.30;99.90
23540;DHT22;11947;50.810;4.394;2022-12-16T10:47:12;3.20;99.90
23540;DHT22;11947;50.810;4.394;2022-12-16T10:50:10;3.10;99.90
23540;DHT22;11947;50.810;4.394;2022-12-16T10:53:01;3.10;99.90
23540;DHT22;11947;50.810;4.394;2022-12-16T10:58:57;3.30;99.90
23540;DHT22;11947;50.810;4.394;2022-12-16T11:01:59;3.40;99.90
23540;DHT22;11947;50.810;4.394;2022-12-16T11:04:47;3.50;99.90
23540;DHT22;11947;50.810;4.394;2022-12-16T11:07:33;3.30;99.90
23540;DHT22;11947;50.810;4.394;2022-12-16T11:13:45;3.70;99.90
23540;DHT22;11947;50.810;4.394;2022-12-16T11:16:29;3.80;99.90
23540;DHT22;11947;50.810;4.394;2022-12-16T11:19:43;3.70;99.90
23540;DHT22;11947;50.810;4.394;2022-12-16T11:22:27;3.30;99.90
23540;DHT22;11947;50.810;4.394;2022-12-16T11:25:19;3.20;99.90
23540;DHT22;11947;50.810;4.394;2022-12-16T11:28:11;3.20;99.90
23540;DHT22;11947;50.810;4.394;2022-12-16T11:30:58;3.30;99.90
23540;DHT22;11947;50.810;4.394;2022-12-16T11:33:44;3.20;99.90
23540;DHT22;11947;50.810;4.394;2022-12-16T11:36:29;3.20;99.90
23540;DHT22;11947;50.810;4.394;2022-12-16T11:39:18;3.20;99.90
23540;DHT22;11947;50.810;4.394;2022-12-16T11:42:05;3.20;99.90
23540;DHT22;11947;50.810;4.394;2022-12-16T11:44:57;3.20;99.90
23540;DHT22;11947;50.810;4.394;2022-12-16T11:47:45;3.20;99.90
23540;DHT22;11947;50.810;4.394;2022-12-16T11:50:31;3.30;99.90
23540;DHT22;11947;50.810;4.394;2022-12-16T11:56:35;3.40;99.90
23540;DHT22;11947;50.810;4.394;2022-12-16T11:59:52;3.50;99.90
23540;DHT22;11947;50.810;4.394;2022-12-16T12:09:22;3.50;99.90
23540;DHT22;11947;50.810;4.394;2022-12-16T12:12:42;3.50;99.90
23540;DHT22;11947;50.810;4.394;2022-12-16T12:15:41;3.60;99.90
23540;DHT22;11947;50.810;4.394;2022-12-16T12:18:55;3.60;99.90
23540;DHT22;11947;50.810;4.394;2022-12-16T12:21:44;3.60;99.90
23540;DHT22;11947;50.810;4.394;2022-12-16T12:24:34;3.60;99.90
23540;DHT22;11947;50.810;4.394;2022-12-16T12:27:32;3.90;99.90
23540;DHT22;11947;50.810;4.394;2022-12-16T12:30:19;3.90;99.90
23540;DHT22;11947;50.810;4.394;2022-12-16T12:48:26;4.10;99.90
23540;DHT22;11947;50.810;4.394;2022-12-16T12:51:27;4.10;99.90
23540;DHT22;11947;50.810;4.394;2022-12-16T12:57:42;5.30;99.90
23540;DHT22;11947;50.810;4.394;2022-12-16T13:00:33;8.70;99.90
23540;DHT22;11947;50.810;4.394;2022-12-16T13:03:38;12.50;99.90
23540;DHT22;11947;50.810;4.394;2022-12-16T13:06:25;15.80;99.90
23540;DHT22;11947;50.810;4.394;2022-12-16T13:09:36;17.00;99.90
23540;DHT22;11947;50.810;4.394;2022-12-16T13:20:56;22.00;95.00
23540;DHT22;11947;50.810;4.394;2022-12-16T13:23:44;22.10;92.60
23540;DHT22;11947;50.810;4.394;2022-12-16T13:26:32;20.70;92.70
23540;DHT22;11947;50.810;4.394;2022-12-16T13:29:24;18.20;94.20
23540;DHT22;11947;50.810;4.394;2022-12-16T13:38:05;12.30;99.90
23540;DHT22;11947;50.810;4.394;2022-12-16T13:41:06;10.90;99.90
23540;DHT22;11947;50.810;4.394;2022-12-16T13:44:52;9.80;99.90
23540;DHT22;11947;50.810;4.394;2022-12-16T13:50:47;8.10;99.90
23540;DHT22;11947;50.810;4.394;2022-12-16T13:53:48;7.50;99.90
23540;DHT22;11947;50.810;4.394;2022-12-16T13:56:42;6.90;99.90
23540;DHT22;11947;50.810;4.394;2022-12-16T13:59:31;6.20;99.90
23540;DHT22;11947;50.810;4.394;2022-12-16T14:02:27;5.90;99.90
23540;DHT22;11947;50.810;4.394;2022-12-16T14:05:34;5.40;99.90
23540;DHT22;11947;50.810;4.394;2022-12-16T14:08:21;5.20;99.90
23540;DHT22;11947;50.810;4.394;2022-12-16T14:11:56;5.00;99.90
23540;DHT22;11947;50.810;4.394;2022-12-16T14:14:26;4.80;99.90
23540;DHT22;11947;50.810;4.394;2022-12-16T14:17:19;4.50;99.90
23540;DHT22;11947;50.810;4.394;2022-12-16T14:20:14;4.40;99.90
23540;DHT22;11947;50.810;4.394;2022-12-16T14:25:56;4.10;99.90
23540;DHT22;11947;50.810;4.394;2022-12-16T14:28:44;3.90;99.90
23540;DHT22;11947;50.810;4.394;2022-12-16T14:31:36;3.90;99.90
23540;DHT22;11947;50.810;4.394;2022-12-16T14:34:22;3.80;99.90
23540;DHT22;11947;50.810;4.394;2022-12-16T14:37:33;3.80;99.90
23540;DHT22;11947;50.810;4.394;2022-12-16T14:40:26;3.70;99.90
23540;DHT22;11947;50.810;4.394;2022-12-16T14:43:19;3.60;99.90
23540;DHT22;11947;50.810;4.394;2022-12-16T14:46:04;3.40;99.90
23540;DHT22;11947;50.810;4.394;2022-12-16T14:48:50;3.30;99.90
23540;DHT22;11947;50.810;4.394;2022-12-16T14:51:45;3.40;99.90
23540;DHT22;11947;50.810;4.394;2022-12-16T14:54:41;3.20;99.90
23540;DHT22;11947;50.810;4.394;2022-12-16T14:57:28;3.10;99.90
23540;DHT22;11947;50.810;4.394;2022-12-16T15:00:19;3.00;99.90
23540;DHT22;11947;50.810;4.394;2022-12-16T15:06:23;2.90;99.90
23540;DHT22;11947;50.810;4.394;2022-12-16T15:09:18;2.80;99.90
23540;DHT22;11947;50.810;4.394;2022-12-16T15:12:03;2.60;99.90
23540;DHT22;11947;50.810;4.394;2022-12-16T15:14:48;2.70;99.90
23540;DHT22;11947;50.810;4.394;2022-12-16T15:18:10;2.60;99.90
23540;DHT22;11947;50.810;4.394;2022-12-16T15:20:50;2.60;99.90
23540;DHT22;11947;50.810;4.394;2022-12-16T15:23:39;2.60;99.90
23540;DHT22;11947;50.810;4.394;2022-12-16T15:26:26;2.40;99.90
23540;DHT22;11947;50.810;4.394;2022-12-16T15:29:46;2.40;99.90
23540;DHT22;11947;50.810;4.394;2022-12-16T15:32:34;2.40;99.90
23540;DHT22;11947;50.810;4.394;2022-12-16T15:38:21;2.30;99.90
23540;DHT22;11947;50.810;4.394;2022-12-16T15:41:27;2.30;99.90
23540;DHT22;11947;50.810;4.394;2022-12-16T15:44:18;2.20;99.90
23540;DHT22;11947;50.810;4.394;2022-12-16T15:47:03;2.00;99.90
23540;DHT22;11947;50.810;4.394;2022-12-16T15:49:48;2.00;99.90
23540;DHT22;11947;50.810;4.394;2022-12-16T15:52:37;1.80;99.90
23540;DHT22;11947;50.810;4.394;2022-12-16T15:58:28;1.70;99.90
23540;DHT22;11947;50.810;4.394;2022-12-16T16:01:15;1.70;99.90
23540;DHT22;11947;50.810;4.394;2022-12-16T16:04:24;1.60;99.90
23540;DHT22;11947;50.810;4.394;2022-12-16T16:07:17;1.50;99.90
23540;DHT22;11947;50.810;4.394;2022-12-16T16:10:23;1.40;99.90
23540;DHT22;11947;50.810;4.394;2022-12-16T16:13:08;1.30;99.90
23540;DHT22;11947;50.810;4.394;2022-12-16T16:15:53;1.30;99.90
23540;DHT22;11947;50.810;4.394;2022-12-16T16:18:38;1.20;99.90
23540;DHT22;11947;50.810;4.394;2022-12-16T16:21:22;1.10;99.90
23540;DHT22;11947;50.810;4.394;2022-12-16T16:24:06;1.00;99.90
23540;DHT22;11947;50.810;4.394;2022-12-16T16:26:53;1.00;99.90
23540;DHT22;11947;50.810;4.394;2022-12-16T16:29:37;0.90;99.90
23540;DHT22;11947;50.810;4.394;2022-12-16T16:32:21;0.90;99.90
23540;DHT22;11947;50.810;4.394;2022-12-16T16:35:06;0.70;99.90
23540;DHT22;11947;50.810;4.394;2022-12-16T16:37:50;0.80;99.90
23540;DHT22;11947;50.810;4.394;2022-12-16T16:43:18;0.60;99.90
23540;DHT22;11947;50.810;4.394;2022-12-16T16:48:58;0.60;99.90
23540;DHT22;11947;50.810;4.394;2022-12-16T16:51:44;0.50;99.90
23540;DHT22;11947;50.810;4.394;2022-12-16T16:54:28;0.60;99.90
23540;DHT22;11947;50.810;4.394;2022-12-16T16:57:13;0.50;99.90
23540;DHT22;11947;50.810;4.394;2022-12-16T16:59:56;0.40;99.90
23540;DHT22;11947;50.810;4.394;2022-12-16T17:02:41;0.50;99.90
23540;DHT22;11947;50.810;4.394;2022-12-16T17:05:25;0.30;99.90
23540;DHT22;11947;50.810;4.394;2022-12-16T17:08:09;0.40;99.90
23540;DHT22;11947;50.810;4.394;2022-12-16T17:10:53;0.40;99.90
23540;DHT22;11947;50.810;4.394;2022-12-16T17:13:37;0.30;99.90
23540;DHT22;11947;50.810;4.394;2022-12-16T17:16:21;0.30;99.90
23540;DHT22;11947;50.810;4.394;2022-12-16T17:19:05;0.30;99.90
23540;DHT22;11947;50.810;4.394;2022-12-16T17:22:09;0.20;99.90
23540;DHT22;11947;50.810;4.394;2022-12-16T17:24:53;0.20;99.90
23540;DHT22;11947;50.810;4.394;2022-12-16T17:27:37;0.40;99.90
23540;DHT22;11947;50.810;4.394;2022-12-16T17:30:21;0.30;99.90
23540;DHT22;11947;50.810;4.394;2022-12-16T17:33:05;0.30;99.90
23540;DHT22;11947;50.810;4.394;2022-12-16T17:35:50;0.40;99.90
23540;DHT22;11947;50.810;4.394;2022-12-16T17:38:40;0.30;99.90
23540;DHT22;11947;50.810;4.394;2022-12-16T17:41:32;0.30;99.90
23540;DHT22;11947;50.810;4.394;2022-12-16T17:44:17;0.30;99.90
23540;DHT22;11947;50.810;4.394;2022-12-16T17:47:01;0.20;99.90
23540;DHT22;11947;50.810;4.394;2022-12-16T17:49:46;0.30;99.90
23540;DHT22;11947;50.810;4.394;2022-12-16T17:52:30;0.30;99.90
23540;DHT22;11947;50.810;4.394;2022-12-16T17:55:14;0.30;99.90
23540;DHT22;11947;50.810;4.394;2022-12-16T17:58:02;0.20;99.90
23540;DHT22;11947;50.810;4.394;2022-12-16T18:00:46;0.30;99.90
23540;DHT22;11947;50.810;4.394;2022-12-16T18:03:30;0.20;99.90
23540;DHT22;11947;50.810;4.394;2022-12-16T18:06:14;0.20;99.90
23540;DHT22;11947;50.810;4.394;2022-12-16T18:08:58;0.10;99.90
23540;DHT22;11947;50.810;4.394;2022-12-16T18:11:42;0.10;99.90
23540;DHT22;11947;50.810;4.394;2022-12-16T18:14:26;0.10;99.90
23540;DHT22;11947;50.810;4.394;2022-12-16T18:17:10;0.10;99.90
23540;DHT22;11947;50.810;4.394;2022-12-16T18:19:54;0.10;99.90
23540;DHT22;11947;50.810;4.394;2022-12-16T18:22:58;0.10;99.90
23540;DHT22;11947;50.810;4.394;2022-12-16T18:25:43;0.10;99.90
23540;DHT22;11947;50.810;4.394;2022-12-16T18:28:30;0.10;99.90
23540;DHT22;11947;50.810;4.394;2022-12-16T18:31:15;0.10;99.90
23540;DHT22;11947;50.810;4.394;2022-12-16T18:33:59;0.00;99.90
23540;DHT22;11947;50.810;4.394;2022-12-16T18:36:43;0.00;99.90
23540;DHT22;11947;50.810;4.394;2022-12-16T18:39:27;-0.10;99.90
23540;DHT22;11947;50.810;4.394;2022-12-16T18:42:11;-0.10;99.90
23540;DHT22;11947;50.810;4.394;2022-12-16T18:44:55;-0.20;99.90
23540;DHT22;11947;50.810;4.394;2022-12-16T18:47:39;-0.10;99.90
23540;DHT22;11947;50.810;4.394;2022-12-16T18:50:23;-0.20;99.90
23540;DHT22;11947;50.810;4.394;2022-12-16T18:53:07;-0.20;99.90
23540;DHT22;11947;50.810;4.394;2022-12-16T18:56:18;-0.20;99.90
23540;DHT22;11947;50.810;4.394;2022-12-16T18:59:02;-0.20;99.90
23540;DHT22;11947;50.810;4.394;2022-12-16T19:02:14;-0.30;99.90
23540;DHT22;11947;50.810;4.394;2022-12-16T19:04:58;-0.20;99.90
23540;DHT22;11947;50.810;4.394;2022-12-16T19:07:42;-0.30;99.90
23540;DHT22;11947;50.810;4.394;2022-12-16T19:10:26;-0.40;99.90
23540;DHT22;11947;50.810;4.394;2022-12-16T19:13:13;-0.40;99.90
23540;DHT22;11947;50.810;4.394;2022-12-16T19:16:01;-0.40;99.90
23540;DHT22;11947;50.810;4.394;2022-12-16T19:18:46;-0.40;99.90
23540;DHT22;11947;50.810;4.394;2022-12-16T19:21:31;-0.50;99.90